Time;durP1;ratioP1;P1;durP2;ratioP2;P2;SDS_P1;SDS_P2;PMS_P1;PMS_P2;Temp;Humidity;BMP_temperature;BMP_pressure;BME280_temperature;BME280_humidity;BME280_pressure;Samples;Min_cycle;Max_cycle;Signal;HPM_P1;HPM_P2
2020/12/29 00:02:43;;;;;;;51.53;31.05;;;;;;;3.06;100.00;97946.34;10385442;28;20034;-76
2020/12/29 00:07:53;;;;;;;49.47;30.80;;;;;;;3.07;100.00;97941.75;10387378;28;20038;-76
2020/12/29 00:12:53;;;;;;;49.97;30.52;;;;;;;2.97;100.00;97928.00;10349867;28;20054;-75
2020/12/29 00:17:54;;;;;;;59.25;34.42;;;;;;;3.02;100.00;97934.13;10349026;28;20062;-75
2020/12/29 00:22:54;;;;;;;54.70;33.33;;;;;;;2.75;100.00;97899.75;10329368;28;20053;-75
2020/12/29 00:27:55;;;;;;;51.33;31.80;;;;;;;3.08;100.00;97959.28;10329311;28;20048;-74
2020/12/29 00:32:55;;;;;;;46.47;28.23;;;;;;;2.73;100.00;97892.16;10326035;28;20046;-75
2020/12/29 00:37:55;;;;;;;49.00;30.20;;;;;;;2.64;100.00;97883.00;10333624;28;20050;-74
2020/12/29 00:42:56;;;;;;;51.20;32.08;;;;;;;2.91;100.00;97924.19;10345829;28;20042;-75
2020/12/29 00:47:56;;;;;;;46.40;31.50;;;;;;;3.18;100.00;97969.22;10347556;28;20061;-75
2020/12/29 00:52:57;;;;;;;51.55;32.33;;;;;;;3.18;100.00;97963.88;10344437;28;20124;-75
2020/12/29 00:57:57;;;;;;;48.42;31.88;;;;;;;3.10;100.00;97962.34;10335440;28;20033;-75
2020/12/29 01:02:58;;;;;;;49.33;31.33;;;;;;;2.79;100.00;97926.44;10355405;28;20038;-75
2020/12/29 01:07:58;;;;;;;50.15;32.78;;;;;;;2.79;100.00;97927.22;10332242;28;20036;-75
2020/12/29 01:12:58;;;;;;;50.70;32.40;;;;;;;3.07;100.00;97963.09;10393180;28;20041;-75
2020/12/29 01:18:01;;;;;;;49.28;32.22;;;;;;;2.99;100.00;97969.56;10393984;28;20041;-75
2020/12/29 01:23:02;;;;;;;53.08;31.92;;;;;;;3.01;100.00;97977.94;10391629;28;20038;-76
2020/12/29 01:28:02;;;;;;;51.08;32.90;;;;;;;2.86;100.00;97959.25;10392906;28;20090;-75
2020/12/29 01:33:05;;;;;;;53.60;32.20;;;;;;;2.90;100.00;97970.69;10394701;28;20352;-75
2020/12/29 01:38:06;;;;;;;54.90;31.92;;;;;;;2.91;100.00;97988.22;10386977;28;20144;-75
2020/12/29 01:43:06;;;;;;;46.45;31.38;;;;;;;3.00;100.00;98000.44;10351576;28;20037;-75
2020/12/29 01:48:07;;;;;;;50.10;32.42;;;;;;;3.13;100.00;98020.31;10384454;28;20103;-73
2020/12/29 01:53:07;;;;;;;48.92;29.83;;;;;;;2.78;100.00;97962.28;10394532;28;20037;-75
2020/12/29 01:58:08;;;;;;;50.22;33.30;;;;;;;3.08;100.00;98007.31;10394250;28;20049;-74
2020/12/29 02:03:11;;;;;;;44.17;29.27;;;;;;;2.73;100.00;97955.41;10372222;28;20068;-75
2020/12/29 02:08:12;;;;;;;40.30;26.60;;;;;;;2.93;100.00;98001.94;10389097;28;20038;-75
2020/12/29 02:13:13;;;;;;;44.38;28.75;;;;;;;2.75;100.00;97985.13;10399280;28;20049;-75
2020/12/29 02:18:13;;;;;;;45.42;28.88;;;;;;;2.99;100.00;98026.38;10393805;28;20168;-75
2020/12/29 02:23:13;;;;;;;48.60;32.25;;;;;;;3.10;100.00;98063.75;10387641;28;20041;-75
2020/12/29 02:28:14;;;;;;;54.10;33.58;;;;;;;3.04;100.00;98054.59;10392071;28;20053;-75
2020/12/29 02:33:14;;;;;;;56.35;34.10;;;;;;;2.63;100.00;97998.78;10386515;28;20063;-75
2020/12/29 02:38:22;;;;;;;49.00;33.03;;;;;;;2.92;100.00;98027.13;10386804;28;20125;-75
2020/12/29 02:43:25;;;;;;;49.85;33.63;;;;;;;3.10;100.00;98055.75;10389608;28;20033;-75
2020/12/29 02:48:25;;;;;;;52.28;34.53;;;;;;;2.87;100.00;98024.81;10392092;28;20056;-75
2020/12/29 02:53:26;;;;;;;54.38;33.80;;;;;;;3.00;100.00;98049.25;10393223;28;20437;-75
2020/12/29 02:58:28;;;;;;;53.58;33.75;;;;;;;2.87;100.00;98030.16;10392647;28;20056;-75
2020/12/29 03:03:29;;;;;;;47.20;33.75;;;;;;;3.27;100.00;98095.09;10379494;28;20184;-76
2020/12/29 03:08:31;;;;;;;46.40;31.70;;;;;;;3.11;100.00;98075.97;10390182;28;20614;-75
2020/12/29 03:13:31;;;;;;;48.30;33.70;;;;;;;2.68;100.00;98022.44;10390551;28;20044;-75
2020/12/29 03:18:32;;;;;;;49.47;31.27;;;;;;;3.15;100.00;98103.44;10389719;28;20318;-75
2020/12/29 03:23:32;;;;;;;47.25;29.40;;;;;;;2.93;100.00;98089.25;10383853;28;20037;-75
2020/12/29 03:28:33;;;;;;;47.28;29.67;;;;;;;2.72;100.00;98071.22;10374553;28;20048;-75
2020/12/29 03:33:33;;;;;;;45.30;27.58;;;;;;;2.77;100.00;98094.88;10388060;28;20299;-75
2020/12/29 03:38:34;;;;;;;43.60;26.70;;;;;;;2.74;100.00;98100.97;10388743;28;20324;-75
2020/12/29 03:43:34;;;;;;;43.13;27.58;;;;;;;2.44;100.00;98067.28;10388222;28;20034;-76
2020/12/29 03:48:34;;;;;;;48.08;29.17;;;;;;;2.79;100.00;98129.97;10389908;28;20179;-75
2020/12/29 03:53:35;;;;;;;54.17;32.08;;;;;;;2.93;100.00;98155.94;10388418;28;20123;-75
2020/12/29 03:58:35;;;;;;;54.63;31.83;;;;;;;2.71;100.00;98117.72;10390677;28;20695;-76
2020/12/29 04:03:36;;;;;;;56.10;31.83;;;;;;;2.86;100.00;98146.00;10388896;28;20029;-76
2020/12/29 04:08:36;;;;;;;56.67;33.67;;;;;;;2.95;100.00;98154.44;10383861;28;20037;-75
2020/12/29 04:13:37;;;;;;;54.67;33.47;;;;;;;2.85;100.00;98170.41;10349494;28;20038;-76
2020/12/29 04:18:38;;;;;;;49.13;31.58;;;;;;;2.36;100.00;98119.03;10332878;28;20057;-75
2020/12/29 04:23:39;;;;;;;47.63;30.33;;;;;;;2.48;100.00;98164.06;10343772;28;20518;-75
2020/12/29 04:28:40;;;;;;;54.05;32.22;;;;;;;2.66;100.00;98195.44;10341830;28;20049;-76
2020/12/29 04:33:41;;;;;;;50.58;30.92;;;;;;;2.72;100.00;98199.28;10335643;28;20044;-76
2020/12/29 04:38:41;;;;;;;52.72;30.55;;;;;;;2.44;100.00;98157.91;10331491;28;20624;-76
2020/12/29 04:43:42;;;;;;;43.95;26.85;;;;;;;2.88;100.00;98217.69;10333580;28;20042;-77
2020/12/29 04:48:43;;;;;;;39.08;25.25;;;;;;;2.41;100.00;98137.34;10335932;28;20076;-76
2020/12/29 04:53:57;;;;;;;51.60;27.52;;;;;;;2.66;100.00;98179.44;10353783;28;20630;-76
2020/12/29 04:58:59;;;;;;;42.83;25.85;;;;;;;2.56;100.00;98164.09;10353387;28;20045;-76
2020/12/29 05:04:00;;;;;;;44.00;25.27;;;;;;;2.62;100.00;98167.97;10339101;28;20044;-76
2020/12/29 05:09:01;;;;;;;38.15;23.30;;;;;;;2.62;100.00;98189.31;10359539;28;20421;-76
2020/12/29 05:14:03;;;;;;;40.22;23.38;;;;;;;2.67;100.00;98202.28;10392318;28;20188;-77
2020/12/29 05:19:09;;;;;;;44.78;22.13;;;;;;;2.58;100.00;98199.16;10393996;28;20050;-77
2020/12/29 05:24:17;;;;;;;34.22;19.63;;;;;;;2.48;100.00;98196.06;10390435;28;20050;-77
2020/12/29 05:29:20;;;;;;;33.13;19.52;;;;;;;2.75;100.00;98241.22;10392047;28;20068;-77
2020/12/29 05:34:28;;;;;;;29.65;18.27;;;;;;;2.92;100.00;98251.25;10394915;28;20039;-78
2020/12/29 05:39:29;;;;;;;29.90;17.90;;;;;;;2.87;100.00;98254.28;10372868;28;20027;-78
2020/12/29 05:44:32;;;;;;;30.38;16.90;;;;;;;2.80;100.00;98248.88;10393534;28;20101;-78
2020/12/29 05:49:33;;;;;;;30.38;17.15;;;;;;;2.85;100.00;98267.22;10395221;28;20025;-78
2020/12/29 05:54:35;;;;;;;29.38;17.60;;;;;;;2.60;100.00;98235.00;10383927;28;20038;-78
2020/12/29 05:59:36;;;;;;;35.35;17.20;;;;;;;2.94;100.00;98283.69;10394653;28;20064;-78
2020/12/29 06:04:37;;;;;;;30.45;17.45;;;;;;;2.77;100.00;98262.94;10385330;28;20038;-78
2020/12/29 06:09:38;;;;;;;31.17;16.85;;;;;;;2.83;100.00;98274.06;10381552;28;20409;-78
2020/12/29 06:14:46;;;;;;;32.70;18.17;;;;;;;2.99;100.00;98298.59;10316705;28;20041;-78
2020/12/29 06:20:02;;;;;;;28.48;17.25;;;;;;;3.07;100.00;98315.41;10348682;28;20615;-78
2020/12/29 06:25:03;;;;;;;32.47;17.42;;;;;;;2.68;100.00;98257.16;10347028;28;20302;-76
2020/12/29 06:30:03;;;;;;;33.00;19.38;;;;;;;3.18;100.00;98337.63;10317993;28;20056;-77
2020/12/29 06:35:04;;;;;;;29.10;19.65;;;;;;;3.10;100.00;98325.34;10351937;28;20042;-77
2020/12/29 06:40:06;;;;;;;33.88;20.92;;;;;;;2.78;100.00;98291.19;10349769;28;20061;-77
2020/12/29 06:45:08;;;;;;;37.33;20.48;;;;;;;3.32;100.00;98364.41;10331359;28;20042;-76
2020/12/29 06:50:29;;;;;;;33.95;18.98;;;;;;;3.02;100.00;98324.53;10333120;28;20084;-77
2020/12/29 06:55:37;;;;;;;26.33;17.10;;;;;;;3.21;100.00;98347.53;10345881;28;20044;-76
2020/12/29 07:00:37;;;;;;;25.98;16.05;;;;;;;3.38;100.00;98373.59;10331053;28;20483;-76
2020/12/29 07:05:38;;;;;;;30.92;19.77;;;;;;;2.99;100.00;98340.50;10350910;28;20042;-76
2020/12/29 07:10:41;;;;;;;36.58;20.80;;;;;;;3.28;100.00;98378.88;10364468;28;20129;-76
2020/12/29 07:15:49;;;;;;;37.08;21.90;;;;;;;3.30;100.00;98390.72;10389861;28;20461;-77
2020/12/29 07:20:52;;;;;;;39.13;23.77;;;;;;;2.99;100.00;98367.19;10390816;28;20037;-76
2020/12/29 07:25:53;;;;;;;42.35;24.50;;;;;;;3.26;100.00;98403.25;10391425;28;20041;-76
2020/12/29 07:30:54;;;;;;;47.42;26.33;;;;;;;3.30;100.00;98417.41;10365006;28;20057;-76
2020/12/29 07:35:54;;;;;;;53.35;30.15;;;;;;;2.87;100.00;98377.00;10372365;28;20041;-76
2020/12/29 07:40:55;;;;;;;60.95;31.08;;;;;;;3.16;100.00;98427.97;10385127;28;20033;-76
2020/12/29 07:45:55;;;;;;;63.13;34.95;;;;;;;2.87;100.00;98401.03;10364288;28;20533;-76
2020/12/29 07:50:59;;;;;;;63.35;37.17;;;;;;;2.82;100.00;98405.91;10389932;28;20037;-76
2020/12/29 07:56:00;;;;;;;57.83;33.47;;;;;;;3.26;100.00;98478.03;10388320;28;20201;-76
2020/12/29 08:01:02;;;;;;;49.15;30.70;;;;;;;3.23;100.00;98468.09;10386789;28;20051;-76
2020/12/29 08:06:03;;;;;;;46.35;28.27;;;;;;;2.98;100.00;98435.81;10390549;28;20034;-76
2020/12/29 08:11:03;;;;;;;46.83;28.75;;;;;;;3.38;100.00;98496.44;10395314;28;20068;-75
2020/12/29 08:16:04;;;;;;;47.60;27.90;;;;;;;3.00;100.00;98459.47;10398005;28;20418;-75
2020/12/29 08:21:04;;;;;;;48.15;26.35;;;;;;;3.37;100.00;98521.63;10399778;28;20041;-76
2020/12/29 08:26:05;;;;;;;45.63;26.02;;;;;;;3.25;100.00;98519.22;10376602;28;20044;-76
2020/12/29 08:31:06;;;;;;;48.25;26.92;;;;;;;3.22;100.00;98509.25;10364581;28;20201;-76
2020/12/29 08:36:08;;;;;;;43.70;25.13;;;;;;;3.28;100.00;98507.81;10396744;28;20042;-76
2020/12/29 08:41:08;;;;;;;40.27;23.13;;;;;;;3.50;100.00;98545.38;10393709;28;20470;-76
2020/12/29 08:46:11;;;;;;;38.15;22.58;;;;;;;3.19;100.00;98510.00;10396017;28;20029;-77
2020/12/29 08:51:25;;;;;;;36.65;20.80;;;;;;;3.57;100.00;98561.47;10396682;28;20052;-76
2020/12/29 08:56:26;;;;;;;36.00;19.02;;;;;;;3.15;100.00;98503.84;10396514;28;20042;-76
2020/12/29 09:01:38;;;;;;;27.70;16.75;;;;;;;3.49;100.00;98549.22;10395180;28;20057;-75
2020/12/29 09:06:38;;;;;;;29.15;17.23;;;;;;;3.36;100.00;98525.44;10396783;28;20033;-76
2020/12/29 09:11:39;;;;;;;30.83;15.65;;;;;;;3.71;100.00;98583.00;10377730;28;20049;-75
2020/12/29 09:16:58;;;;;;;28.15;15.25;;;;;;;3.06;100.00;98463.34;10394532;28;20048;-75
2020/12/29 09:22:11;;;;;;;21.13;13.90;;;;;;;4.14;100.00;98614.66;10394922;28;20111;-77
2020/12/29 09:27:12;;;;;;;22.42;11.95;;;;;;;3.84;100.00;98574.72;10394231;28;20033;-77
2020/12/29 09:32:17;;;;;;;20.55;12.02;;;;;;;3.76;100.00;98584.56;10393413;28;20399;-77
2020/12/29 09:37:17;;;;;;;17.92;11.27;;;;;;;3.58;100.00;98579.06;10394842;28;20120;-77
2020/12/29 09:42:18;;;;;;;22.42;12.05;;;;;;;3.93;100.00;98650.03;10374506;28;20045;-76
2020/12/29 09:47:18;;;;;;;22.13;12.80;;;;;;;3.95;100.00;98663.75;10389609;28;20678;-77
2020/12/29 09:52:19;;;;;;;24.38;13.00;;;;;;;3.97;100.00;98680.22;10394531;28;20037;-77
2020/12/29 09:57:19;;;;;;;19.85;12.05;;;;;;;4.00;100.00;98684.84;10393218;28;20087;-76
2020/12/29 10:02:21;;;;;;;24.80;12.05;;;;;;;3.62;100.00;98633.28;10387918;28;20037;-77
2020/12/29 10:07:21;;;;;;;21.25;12.30;;;;;;;3.59;100.00;98628.69;10390841;28;20045;-77
2020/12/29 10:12:21;;;;;;;21.45;11.80;;;;;;;4.21;100.00;98700.31;10391259;28;20049;-77
2020/12/29 10:17:22;;;;;;;20.55;11.00;;;;;;;3.78;100.00;98647.19;10364890;28;20061;-77
2020/12/29 10:22:25;;;;;;;16.00;8.95;;;;;;;3.77;100.00;98645.66;10390856;28;20033;-77
2020/12/29 10:27:26;;;;;;;13.95;9.13;;;;;;;3.97;100.00;98669.53;10389777;28;20438;-77
2020/12/29 10:32:26;;;;;;;21.50;11.30;;;;;;;3.80;100.00;98660.97;10389408;28;20801;-77
2020/12/29 10:37:26;;;;;;;23.13;14.82;;;;;;;4.27;99.94;98719.47;10389914;28;20437;-77
2020/12/29 10:42:27;;;;;;;24.33;16.15;;;;;;;4.24;99.85;98727.09;10387481;28;20052;-78
2020/12/29 10:47:27;;;;;;;25.15;16.15;;;;;;;4.05;99.77;98687.19;10391173;28;20068;-77
2020/12/29 10:52:28;;;;;;;31.20;18.25;;;;;;;4.28;100.00;98743.19;10387455;28;20037;-77
2020/12/29 10:57:28;;;;;;;31.15;17.85;;;;;;;3.86;99.93;98674.78;10391455;28;20042;-78
2020/12/29 11:02:28;;;;;;;26.15;16.02;;;;;;;4.36;100.00;98760.06;10387456;28;20042;-77
2020/12/29 11:07:29;;;;;;;22.25;15.25;;;;;;;4.17;100.00;98735.03;10389498;28;20041;-76
2020/12/29 11:12:29;;;;;;;23.65;12.88;;;;;;;4.34;100.00;98754.31;10384560;28;20053;-77
2020/12/29 11:17:32;;;;;;;22.13;12.45;;;;;;;4.21;99.91;98749.22;10385673;28;20765;-77
2020/12/29 11:22:32;;;;;;;21.40;11.35;;;;;;;4.35;99.77;98774.56;10384184;28;20029;-77
2020/12/29 11:27:33;;;;;;;17.60;9.23;;;;;;;4.29;98.42;98776.03;10386680;28;20394;-76
2020/12/29 11:32:33;;;;;;;11.73;5.55;;;;;;;4.32;97.68;98786.00;10384651;28;20088;-77
2020/12/29 11:37:36;;;;;;;11.70;5.95;;;;;;;4.27;96.56;98772.97;10382410;28;20034;-76
2020/12/29 11:42:36;;;;;;;10.50;5.53;;;;;;;4.48;96.65;98783.84;10385026;28;20091;-77
2020/12/29 11:47:37;;;;;;;12.90;5.43;;;;;;;3.90;96.08;98709.53;10391085;28;20099;-76
2020/12/29 11:52:37;;;;;;;13.40;5.13;;;;;;;4.22;97.13;98756.09;10369189;28;20053;-78
2020/12/29 11:57:38;;;;;;;10.75;3.17;;;;;;;4.53;97.46;98802.25;10372729;28;20037;-79
2020/12/29 12:02:38;;;;;;;7.55;3.53;;;;;;;4.56;96.69;98827.50;10389485;28;20041;-79
2020/12/29 12:07:39;;;;;;;6.45;2.75;;;;;;;4.52;96.08;98806.06;10388840;28;20402;-78
2020/12/29 12:12:39;;;;;;;3.28;1.77;;;;;;;4.35;94.17;98795.94;10359756;28;20045;-79
2020/12/29 12:17:40;;;;;;;5.55;2.10;;;;;;;4.27;93.55;98794.34;10383659;28;20413;-79
2020/12/29 12:22:40;;;;;;;5.65;2.20;;;;;;;4.31;94.03;98821.91;10386380;28;20722;-79
2020/12/29 12:27:41;;;;;;;3.72;1.95;;;;;;;4.19;93.84;98826.38;10384464;28;20493;-79
2020/12/29 12:32:41;;;;;;;9.45;2.67;;;;;;;4.10;93.74;98828.56;10383846;28;21823;-79
2020/12/29 12:37:41;;;;;;;9.18;3.28;;;;;;;4.26;93.88;98841.72;10385279;28;20033;-79
2020/12/29 12:42:42;;;;;;;8.45;3.83;;;;;;;4.32;95.62;98850.19;10384107;28;20123;-82
2020/12/29 12:47:42;;;;;;;4.03;1.92;;;;;;;4.27;91.97;98853.19;10373032;28;20033;-81
2020/12/29 12:52:43;;;;;;;8.10;3.45;;;;;;;4.45;93.19;98875.56;10387169;28;20068;-82
2020/12/29 12:57:43;;;;;;;10.20;5.80;;;;;;;4.33;94.65;98852.50;10391526;28;20088;-80
2020/12/29 13:02:44;;;;;;;17.80;7.18;;;;;;;4.47;96.36;98884.00;10392913;28;20033;-78
2020/12/29 13:07:47;;;;;;;18.50;9.20;;;;;;;4.46;97.66;98893.16;10390420;28;20552;-77
2020/12/29 13:12:48;;;;;;;23.98;12.68;;;;;;;4.36;98.95;98889.22;10394032;28;20658;-78
2020/12/29 13:17:49;;;;;;;28.20;13.02;;;;;;;4.44;99.72;98906.13;10365689;28;20049;-77
2020/12/29 13:22:49;;;;;;;32.03;14.20;;;;;;;4.38;100.00;98891.53;10390962;28;20037;-79
2020/12/29 13:27:50;;;;;;;18.95;8.35;;;;;;;4.32;95.99;98903.69;10391652;28;20049;-77
2020/12/29 13:32:50;;;;;;;12.30;5.60;;;;;;;4.62;94.25;98939.19;10389871;28;20739;-78
2020/12/29 13:37:50;;;;;;;10.95;4.97;;;;;;;4.41;92.09;98906.84;10388321;28;20704;-79
2020/12/29 13:42:51;;;;;;;10.85;4.88;;;;;;;4.36;93.12;98899.16;10387445;28;20033;-80
2020/12/29 13:47:52;;;;;;;11.73;4.53;;;;;;;4.73;92.00;98960.00;10392665;28;20076;-85
2020/12/29 13:52:54;;;;;;;12.57;6.15;;;;;;;4.32;92.73;98909.03;10392082;28;20148;-81
2020/12/29 13:57:54;;;;;;;10.90;6.10;;;;;;;4.74;93.21;98972.22;10389866;28;20045;-84
2020/12/29 14:02:54;;;;;;;15.27;7.20;;;;;;;4.44;93.81;98954.28;10392369;28;20037;-82
2020/12/29 14:07:55;;;;;;;15.02;6.80;;;;;;;4.70;93.99;98998.16;10390149;28;20038;-84
2020/12/29 14:12:55;;;;;;;13.73;5.50;;;;;;;4.81;92.71;98988.38;10391520;28;20057;-84
2020/12/29 14:17:56;;;;;;;12.75;5.53;;;;;;;4.87;91.01;99008.34;10392544;28;20084;-83
2020/12/29 14:22:56;;;;;;;13.90;6.70;;;;;;;4.36;90.39;98931.25;10375449;28;20037;-84
2020/12/29 14:27:57;;;;;;;13.85;6.13;;;;;;;4.19;89.74;98928.00;10391548;28;20044;-82
2020/12/29 14:32:57;;;;;;;16.80;8.23;;;;;;;4.50;89.42;98963.53;10389815;28;20523;-83
2020/12/29 14:37:57;;;;;;;27.00;14.27;;;;;;;4.41;92.36;98965.72;10389045;28;20034;-76
2020/12/29 14:42:58;;;;;;;28.60;17.20;;;;;;;4.78;93.30;99037.28;10388416;28;20041;-78
2020/12/29 14:47:58;;;;;;;26.52;15.85;;;;;;;4.76;93.66;99044.91;10352381;28;20470;-79
2020/12/29 14:52:59;;;;;;;32.05;17.75;;;;;;;4.52;94.34;99036.19;10385949;28;20053;-78
2020/12/29 14:57:59;;;;;;;30.80;17.15;;;;;;;4.63;94.29;99042.47;10387951;28;20037;-79
2020/12/29 15:03:00;;;;;;;26.42;16.38;;;;;;;4.66;94.00;99057.78;10359701;28;20041;-79
2020/12/29 15:08:01;;;;;;;32.92;17.40;;;;;;;4.28;93.78;99010.66;10387486;28;20122;-79
2020/12/29 15:13:01;;;;;;;30.83;17.05;;;;;;;4.63;93.99;99079.94;10389113;28;20068;-80
2020/12/29 15:18:02;;;;;;;34.33;17.45;;;;;;;3.70;94.19;98958.22;10369427;28;20489;-78
2020/12/29 15:23:02;;;;;;;29.33;17.67;;;;;;;4.45;94.17;99078.91;10357800;28;20033;-79
2020/12/29 15:28:03;;;;;;;29.40;17.40;;;;;;;4.58;93.73;99104.31;10388161;28;21130;-78
2020/12/29 15:33:03;;;;;;;31.08;17.10;;;;;;;4.50;93.62;99091.97;10391045;28;20049;-79
2020/12/29 15:38:04;;;;;;;28.63;16.73;;;;;;;4.08;93.32;99044.72;10390271;28;20041;-77
2020/12/29 15:43:04;;;;;;;26.50;16.63;;;;;;;4.43;94.09;99123.97;10374576;28;20045;-80
2020/12/29 15:48:05;;;;;;;28.65;16.85;;;;;;;4.11;94.38;99097.47;10378962;28;20042;-77
2020/12/29 15:53:06;;;;;;;30.98;15.25;;;;;;;3.98;94.50;99114.84;10388707;28;21747;-79
2020/12/29 15:58:06;;;;;;;21.83;11.68;;;;;;;3.96;94.34;99117.88;10368778;28;20120;-78
2020/12/29 16:03:08;;;;;;;14.98;8.07;;;;;;;3.94;93.83;99130.06;10387749;28;20049;-80
2020/12/29 16:08:08;;;;;;;14.30;6.40;;;;;;;3.75;92.87;99112.94;10349283;28;20546;-77
2020/12/29 16:13:08;;;;;;;13.55;6.13;;;;;;;3.60;92.99;99116.50;10379672;28;20061;-76
2020/12/29 16:18:09;;;;;;;14.55;6.72;;;;;;;3.46;92.05;99103.63;10390470;28;20075;-77
2020/12/29 16:23:09;;;;;;;16.55;5.80;;;;;;;3.65;91.30;99145.59;10383314;28;20041;-77
2020/12/29 16:28:10;;;;;;;12.10;5.75;;;;;;;3.83;91.71;99171.84;10378032;28;20099;-77
2020/12/29 16:33:12;;;;;;;14.30;5.47;;;;;;;3.93;91.98;99187.34;10387577;28;20088;-78
2020/12/29 16:38:12;;;;;;;13.13;7.27;;;;;;;3.99;92.27;99191.25;10391332;28;20502;-77
2020/12/29 16:43:12;;;;;;;15.93;8.57;;;;;;;3.95;92.74;99185.06;10404199;28;20034;-77
2020/12/29 16:48:13;;;;;;;22.90;12.00;;;;;;;3.79;94.04;99172.56;10395562;28;20490;-78
2020/12/29 16:53:13;;;;;;;27.73;16.52;;;;;;;3.79;95.53;99188.59;10378556;28;20073;-81
2020/12/29 16:58:14;;;;;;;39.22;19.75;;;;;;;3.91;96.79;99221.66;10378279;28;20041;-80
2020/12/29 17:03:14;;;;;;;43.58;22.75;;;;;;;3.88;96.57;99228.50;10373380;28;20387;-81
2020/12/29 17:08:15;;;;;;;38.67;20.65;;;;;;;3.88;97.04;99233.84;10395687;28;20068;-79
2020/12/29 17:13:15;;;;;;;37.85;21.08;;;;;;;4.00;97.39;99257.75;10342034;28;20558;-80
2020/12/29 17:18:15;;;;;;;40.58;23.13;;;;;;;3.96;97.22;99248.09;10392433;28;20057;-80
2020/12/29 17:23:16;;;;;;;36.95;19.73;;;;;;;3.80;96.21;99238.25;10372581;28;20380;-80
2020/12/29 17:28:16;;;;;;;30.17;17.77;;;;;;;3.94;95.76;99266.41;10386850;28;20075;-79
2020/12/29 17:33:17;;;;;;;36.33;18.35;;;;;;;3.43;95.64;99197.03;10388590;28;20034;-78
2020/12/29 17:38:18;;;;;;;38.75;19.00;;;;;;;3.78;95.93;99264.56;10387903;28;20131;-81
2020/12/29 17:43:18;;;;;;;32.70;18.63;;;;;;;3.13;95.65;99184.25;10387456;28;20600;-78
2020/12/29 17:48:19;;;;;;;34.17;17.35;;;;;;;3.28;95.63;99218.13;10361152;28;20207;-76
2020/12/29 17:53:19;;;;;;;33.08;17.95;;;;;;;3.35;96.46;99250.31;10388783;28;20045;-76
2020/12/29 17:58:20;;;;;;;34.38;18.00;;;;;;;3.06;96.85;99221.47;10369779;28;20160;-80
2020/12/29 18:03:20;;;;;;;33.47;18.58;;;;;;;3.05;96.79;99235.91;10386753;28;20038;-78
2020/12/29 18:08:21;;;;;;;36.63;20.17;;;;;;;2.94;96.79;99247.13;10394287;28;20053;-79
2020/12/29 18:13:21;;;;;;;35.70;19.70;;;;;;;3.12;96.97;99284.13;10385671;28;20045;-79
2020/12/29 18:18:21;;;;;;;31.85;18.33;;;;;;;3.01;97.44;99288.44;10367977;28;20048;-79
2020/12/29 18:23:25;;;;;;;32.40;18.52;;;;;;;2.95;97.78;99312.75;10373902;28;20045;-79
2020/12/29 18:28:25;;;;;;;34.75;18.30;;;;;;;2.72;97.28;99287.78;10374695;28;20048;-80
2020/12/29 18:33:26;;;;;;;33.75;19.00;;;;;;;2.86;97.60;99306.03;10373579;28;20463;-78
2020/12/29 18:38:27;;;;;;;37.45;18.30;;;;;;;2.69;96.27;99289.22;10393176;28;20044;-79
2020/12/29 18:43:27;;;;;;;41.40;20.00;;;;;;;3.02;96.75;99343.41;10392161;28;20487;-78
2020/12/29 18:48:28;;;;;;;41.22;18.45;;;;;;;3.01;96.75;99357.84;10392938;28;20045;-77
2020/12/29 18:53:28;;;;;;;33.08;18.63;;;;;;;2.59;97.15;99294.28;10388803;28;20107;-77
2020/12/29 18:58:29;;;;;;;36.10;19.70;;;;;;;2.91;96.85;99343.91;10369757;28;20038;-76
2020/12/29 19:03:29;;;;;;;35.25;18.33;;;;;;;3.05;96.63;99358.72;10368515;28;20085;-76
2020/12/29 19:08:29;;;;;;;40.25;18.70;;;;;;;3.08;96.34;99371.38;10375845;28;20545;-76
2020/12/29 19:13:30;;;;;;;31.17;16.77;;;;;;;2.48;96.55;99289.47;10381111;28;20118;-75
2020/12/29 19:18:30;;;;;;;35.53;19.23;;;;;;;2.72;96.01;99319.78;10391510;28;20111;-76
2020/12/29 19:23:31;;;;;;;32.38;18.42;;;;;;;3.15;96.63;99400.91;10404591;28;20076;-75
2020/12/29 19:28:31;;;;;;;30.67;17.90;;;;;;;3.10;96.75;99398.50;10381815;28;20477;-76
2020/12/29 19:33:32;;;;;;;36.30;19.65;;;;;;;3.04;96.19;99370.53;10385655;28;20052;-75
2020/12/29 19:38:37;;;;;;;31.05;17.50;;;;;;;3.33;94.85;99402.13;10386800;28;20034;-75
2020/12/29 19:43:39;;;;;;;26.30;14.93;;;;;;;3.19;94.15;99364.41;10383761;28;20490;-77
2020/12/29 19:48:40;;;;;;;22.35;13.63;;;;;;;3.58;92.31;99418.00;10377632;28;22187;-76
2020/12/29 19:53:41;;;;;;;30.80;15.35;;;;;;;3.48;91.36;99381.91;10381763;28;20036;-76
2020/12/29 19:58:43;;;;;;;20.45;11.80;;;;;;;3.79;90.36;99423.81;10381132;28;20064;-77
2020/12/29 20:03:43;;;;;;;18.90;11.75;;;;;;;3.78;89.25;99416.91;10381896;28;20048;-77
2020/12/29 20:08:44;;;;;;;21.48;12.98;;;;;;;3.55;89.57;99391.94;10348151;28;20450;-76
2020/12/29 20:13:44;;;;;;;26.20;14.30;;;;;;;3.79;90.40;99429.16;10380879;28;20108;-77
2020/12/29 20:18:45;;;;;;;21.98;13.48;;;;;;;3.77;90.69;99431.41;10385700;28;20113;-77
2020/12/29 20:23:45;;;;;;;36.95;15.23;;;;;;;3.77;90.92;99439.44;10382121;28;20095;-78
2020/12/29 20:28:46;;;;;;;24.15;14.68;;;;;;;3.85;91.76;99458.28;10385478;28;20030;-78
2020/12/29 20:33:46;;;;;;;27.70;15.90;;;;;;;3.48;91.71;99381.09;10385479;28;20402;-80
2020/12/29 20:38:46;;;;;;;29.73;17.15;;;;;;;3.74;92.24;99448.16;10378544;28;20095;-77
2020/12/29 20:43:49;;;;;;;27.48;16.30;;;;;;;3.71;93.29;99432.78;10355921;28;20129;-77
2020/12/29 20:48:49;;;;;;;20.42;13.90;;;;;;;3.52;92.91;99425.47;10366672;28;20039;-77
2020/12/29 20:53:51;;;;;;;21.25;11.75;;;;;;;3.66;90.99;99441.06;10381851;28;20041;-76
2020/12/29 20:58:54;;;;;;;20.13;10.80;;;;;;;3.79;88.99;99466.59;10374739;28;20045;-75
2020/12/29 21:03:55;;;;;;;18.38;10.85;;;;;;;4.03;87.43;99481.63;10380106;28;20087;-75
2020/12/29 21:08:56;;;;;;;17.85;10.65;;;;;;;3.92;87.15;99464.56;10384874;28;20057;-75
2020/12/29 21:13:56;;;;;;;23.15;11.30;;;;;;;4.04;86.86;99485.09;10390430;28;20038;-77
2020/12/29 21:18:57;;;;;;;19.65;12.48;;;;;;;4.09;89.04;99500.09;10386389;28;20055;-78
2020/12/29 21:23:58;;;;;;;23.58;13.98;;;;;;;3.96;90.34;99480.72;10360945;28;20376;-79
2020/12/29 21:28:59;;;;;;;25.00;14.30;;;;;;;3.60;90.87;99442.47;10386398;28;20115;-77
2020/12/29 21:34:00;;;;;;;26.77;14.38;;;;;;;3.70;91.22;99468.66;10380555;28;20095;-77
2020/12/29 21:39:00;;;;;;;23.40;14.15;;;;;;;3.93;91.03;99502.81;10376146;28;20037;-77
2020/12/29 21:44:00;;;;;;;18.75;12.10;;;;;;;3.86;89.37;99491.91;10386550;28;20037;-77
2020/12/29 21:49:02;;;;;;;21.25;13.75;;;;;;;3.78;90.34;99470.38;10388749;28;20034;-77
2020/12/29 21:54:03;;;;;;;24.17;13.57;;;;;;;3.99;90.66;99512.09;10389734;28;20099;-77
2020/12/29 21:59:04;;;;;;;19.50;12.80;;;;;;;3.75;90.57;99476.41;10390715;28;20065;-78
2020/12/29 22:04:04;;;;;;;21.08;13.15;;;;;;;3.04;90.72;99375.88;10356377;28;20067;-78
2020/12/29 22:09:04;;;;;;;26.88;15.38;;;;;;;3.62;91.79;99464.25;10386131;28;20053;-78
2020/12/29 22:14:07;;;;;;;27.60;14.77;;;;;;;3.56;92.12;99457.63;10389480;28;20072;-78
2020/12/29 22:19:07;;;;;;;27.65;15.80;;;;;;;3.76;93.14;99499.38;10382541;28;20049;-82
2020/12/29 22:24:08;;;;;;;30.75;17.65;;;;;;;3.80;93.76;99523.50;10384390;28;20071;-77
2020/12/29 22:29:09;;;;;;;29.30;17.85;;;;;;;3.77;94.74;99527.63;10384326;28;20781;-79
2020/12/29 22:34:09;;;;;;;34.20;18.25;;;;;;;3.33;95.28;99471.56;10388564;28;20556;-79
2020/12/29 22:39:10;;;;;;;28.85;18.15;;;;;;;3.52;95.25;99510.22;10382821;28;20037;-79
2020/12/29 22:44:10;;;;;;;33.35;17.77;;;;;;;3.58;95.58;99524.88;10387705;28;20451;-76
2020/12/29 22:49:11;;;;;;;32.28;17.80;;;;;;;3.69;95.52;99531.25;10385807;28;20033;-76
2020/12/29 22:54:11;;;;;;;30.50;18.63;;;;;;;3.71;96.06;99544.28;10385743;28;20095;-77
2020/12/29 22:59:11;;;;;;;31.45;18.45;;;;;;;3.69;96.28;99552.66;10380048;28;20041;-76